createdAt,value
2019-01-31T00:00:46.734Z,2.16
2019-01-31T00:03:39.746Z,2.03
2019-01-31T00:06:27.825Z,2.13
2019-01-31T00:09:39.298Z,1.98
2019-01-31T00:12:46.571Z,1.96
2019-01-31T00:15:48.347Z,1.78
2019-01-31T00:18:58.174Z,2.07
2019-01-31T00:22:03.357Z,1.77
2019-01-31T00:24:39.969Z,1.73
2019-01-31T00:27:41.953Z,1.86
2019-01-31T00:30:34.553Z,2.00
2019-01-31T00:33:26.217Z,2.30
2019-01-31T00:36:34.141Z,2.11
2019-01-31T00:39:40.499Z,1.94
2019-01-31T00:42:41.960Z,2.01
2019-01-31T00:45:59.279Z,1.91
2019-01-31T00:49:08.302Z,1.87
2019-01-31T00:52:35.154Z,1.90
2019-01-31T00:55:41.114Z,1.77
2019-01-31T00:58:42.822Z,1.94
2019-01-31T01:01:46.279Z,2.14
2019-01-31T01:05:04.729Z,1.86
2019-01-31T01:08:04.831Z,2.16
2019-01-31T01:10:57.702Z,2.09
2019-01-31T01:13:51.363Z,1.80
2019-01-31T01:16:52.361Z,1.95
2019-01-31T01:19:34.615Z,1.76
2019-01-31T01:22:32.335Z,1.74
2019-01-31T01:25:28.403Z,2.07
2019-01-31T01:28:27.192Z,1.98
2019-01-31T01:31:17.890Z,1.93
2019-01-31T01:34:17.022Z,1.81
2019-01-31T01:37:18.273Z,1.88
2019-01-31T01:40:43.438Z,1.83
2019-01-31T01:43:56.996Z,2.05
2019-01-31T01:46:40.842Z,1.90
2019-01-31T01:49:22.534Z,1.81
2019-01-31T01:52:15.960Z,1.67
2019-01-31T01:55:34.975Z,1.75
2019-01-31T01:58:43.688Z,1.65
2019-01-31T02:01:26.400Z,1.83
2019-01-31T02:04:33.801Z,1.66
2019-01-31T02:07:52.065Z,1.90
2019-01-31T02:10:59.436Z,2.00
2019-01-31T02:13:50.936Z,1.90
2019-01-31T02:16:53.560Z,1.72
2019-01-31T02:19:59.607Z,1.89
2019-01-31T02:23:00.437Z,1.61
2019-01-31T02:25:38.447Z,1.99
2019-01-31T02:28:27.307Z,1.80
2019-01-31T02:31:26.713Z,1.88
2019-01-31T02:34:46.721Z,1.71
2019-01-31T02:37:46.540Z,1.88
2019-01-31T02:40:43.770Z,1.70
2019-01-31T02:43:29.563Z,1.66
2019-01-31T02:46:42.072Z,1.88
2019-01-31T02:49:32.804Z,1.70
2019-01-31T02:52:45.486Z,1.66
2019-01-31T02:55:50.114Z,1.85
2019-01-31T02:58:58.331Z,1.79
2019-01-31T03:02:02.443Z,2.02
2019-01-31T03:05:34.823Z,1.84
2019-01-31T03:08:16.100Z,1.89
2019-01-31T03:11:14.673Z,1.91
2019-01-31T03:14:14.639Z,2.28
2019-01-31T03:17:26.143Z,1.99
2019-01-31T03:20:24.766Z,2.14
2019-01-31T03:23:09.782Z,2.36
2019-01-31T03:26:20.646Z,2.48
2019-01-31T03:29:24.651Z,1.99
2019-01-31T03:32:34.688Z,2.35
2019-01-31T03:35:42.026Z,1.96
2019-01-31T03:38:46.400Z,2.26
2019-01-31T03:42:04.504Z,2.41
2019-01-31T03:44:55.555Z,2.23
2019-01-31T03:48:14.818Z,1.95
2019-01-31T03:50:52.530Z,2.07
2019-01-31T03:53:50.170Z,2.29
2019-01-31T03:56:50.333Z,2.23
2019-01-31T03:59:36.996Z,2.49
2019-01-31T04:02:29.181Z,2.23
2019-01-31T04:05:27.621Z,2.36
2019-01-31T04:07:54.690Z,2.08
2019-01-31T04:10:21.778Z,2.75
2019-01-31T04:12:48.917Z,2.69
2019-01-31T04:15:15.961Z,2.21
2019-01-31T04:17:43.060Z,2.50
2019-01-31T04:20:10.299Z,2.66
2019-01-31T04:22:37.373Z,2.43
2019-01-31T04:25:04.858Z,2.16
2019-01-31T04:27:32.027Z,2.29
2019-01-31T04:29:59.078Z,2.43
2019-01-31T04:32:27.238Z,2.63
2019-01-31T04:34:54.275Z,2.27
2019-01-31T04:37:22.143Z,2.61
2019-01-31T04:39:49.185Z,2.32
2019-01-31T04:42:19.429Z,2.73
2019-01-31T04:44:46.458Z,2.56
2019-01-31T04:47:13.518Z,2.10
2019-01-31T04:49:40.915Z,2.51
2019-01-31T04:52:08.038Z,2.83
2019-01-31T04:54:35.095Z,2.78
2019-01-31T04:57:02.537Z,2.48
2019-01-31T04:59:30.157Z,2.54
2019-01-31T05:01:57.219Z,2.56
2019-01-31T05:04:24.255Z,2.35
2019-01-31T05:06:51.316Z,2.11
2019-01-31T05:09:18.397Z,2.34
2019-01-31T05:11:45.482Z,2.65
2019-01-31T05:14:12.501Z,2.69
2019-01-31T05:16:39.561Z,2.95
2019-01-31T05:19:07.709Z,2.51
2019-01-31T05:21:35.060Z,2.56
2019-01-31T05:24:02.099Z,2.98
2019-01-31T05:26:29.522Z,2.99
2019-01-31T05:28:57.277Z,2.21
2019-01-31T05:31:24.323Z,2.79
2019-01-31T05:33:51.351Z,2.82
2019-01-31T05:36:18.392Z,2.73
2019-01-31T05:38:45.416Z,2.98
2019-01-31T05:41:12.528Z,2.55
2019-01-31T05:43:39.571Z,2.92
2019-01-31T05:46:06.632Z,2.97
2019-01-31T05:48:35.097Z,2.89
2019-01-31T05:51:02.591Z,2.50
2019-01-31T05:53:30.321Z,2.70
2019-01-31T05:55:58.086Z,2.70
2019-01-31T05:58:25.433Z,2.54
2019-01-31T06:00:52.834Z,2.83
2019-01-31T06:03:20.160Z,2.86
2019-01-31T06:05:47.911Z,2.64
2019-01-31T06:08:16.017Z,2.69
2019-01-31T06:10:43.435Z,2.93
2019-01-31T06:13:12.337Z,2.72
2019-01-31T06:15:39.662Z,2.82
2019-01-31T06:18:06.715Z,3.21
2019-01-31T06:20:34.087Z,2.53
2019-01-31T06:23:01.441Z,2.91
2019-01-31T06:25:28.796Z,2.65
2019-01-31T06:27:55.847Z,2.79
2019-01-31T06:30:22.998Z,3.03
2019-01-31T06:32:50.445Z,2.84
2019-01-31T06:35:18.208Z,2.97
2019-01-31T06:37:45.570Z,2.81
2019-01-31T06:40:15.616Z,2.78
2019-01-31T06:42:42.937Z,2.83
2019-01-31T06:45:13.147Z,2.87
2019-01-31T06:47:40.198Z,2.69
2019-01-31T06:50:07.422Z,2.75
2019-01-31T06:52:35.609Z,2.57
2019-01-31T06:55:03.497Z,2.77
2019-01-31T06:57:30.554Z,2.63
2019-01-31T06:59:58.045Z,2.65
2019-01-31T07:02:25.108Z,2.88
2019-01-31T07:04:52.726Z,2.88
2019-01-31T07:07:20.209Z,2.80
2019-01-31T07:09:47.561Z,2.67
2019-01-31T07:12:14.869Z,2.72
2019-01-31T07:14:42.535Z,2.12
2019-01-31T07:17:09.597Z,2.35
2019-01-31T07:19:36.934Z,2.35
2019-01-31T07:22:04.020Z,2.28
2019-01-31T07:24:31.070Z,2.50
2019-01-31T07:26:58.140Z,2.44
2019-01-31T07:29:25.674Z,2.47
2019-01-31T07:31:53.399Z,2.74
2019-01-31T07:34:21.489Z,3.00
2019-01-31T07:36:51.390Z,2.55
2019-01-31T07:39:18.434Z,2.47
2019-01-31T07:41:45.836Z,2.27
2019-01-31T07:44:13.559Z,2.33
2019-01-31T07:46:40.907Z,2.07
2019-01-31T07:49:07.983Z,2.18
2019-01-31T07:51:35.039Z,2.12
2019-01-31T07:54:02.190Z,1.82
2019-01-31T07:56:29.626Z,1.97
2019-01-31T07:58:57.774Z,2.28
2019-01-31T08:01:27.110Z,2.37
2019-01-31T08:04:02.263Z,2.22
2019-01-31T08:06:23.614Z,2.39
2019-01-31T08:08:50.651Z,2.45
2019-01-31T08:11:18.827Z,2.36
2019-01-31T08:13:45.886Z,2.50
2019-01-31T08:16:12.944Z,2.73
2019-01-31T08:18:41.309Z,2.89
2019-01-31T08:21:10.446Z,3.32
2019-01-31T08:23:37.775Z,2.61
2019-01-31T08:26:04.955Z,2.44
2019-01-31T08:28:31.993Z,2.87
2019-01-31T08:30:59.954Z,3.19
2019-01-31T08:33:28.497Z,2.63
2019-01-31T08:35:55.783Z,2.53
2019-01-31T08:38:23.130Z,2.64
2019-01-31T08:40:50.641Z,2.82
2019-01-31T08:43:20.434Z,2.51
2019-01-31T08:45:47.652Z,2.88
2019-01-31T08:48:16.163Z,3.10
2019-01-31T08:50:43.358Z,3.16
2019-01-31T08:53:10.859Z,2.73
2019-01-31T08:55:37.926Z,2.84
2019-01-31T08:58:05.464Z,2.69
2019-01-31T09:00:33.216Z,3.21
2019-01-31T09:03:00.572Z,3.40
2019-01-31T09:05:27.732Z,2.92
2019-01-31T09:07:55.009Z,2.75
2019-01-31T09:10:27.986Z,2.81
2019-01-31T09:12:57.872Z,2.72
2019-01-31T09:15:25.942Z,2.92
2019-01-31T09:17:54.734Z,2.54
2019-01-31T09:20:43.279Z,2.71
2019-01-31T09:24:14.191Z,3.38
2019-01-31T09:27:26.443Z,3.50
2019-01-31T09:30:31.015Z,2.89
2019-01-31T09:33:40.398Z,3.13
2019-01-31T09:36:52.747Z,2.83
2019-01-31T09:39:52.294Z,3.18
2019-01-31T09:42:29.233Z,3.12
2019-01-31T09:45:33.808Z,3.29
2019-01-31T09:48:27.794Z,3.50
2019-01-31T09:51:26.629Z,3.41
2019-01-31T09:54:34.802Z,3.13
2019-01-31T09:57:42.299Z,3.04
2019-01-31T10:00:47.132Z,3.32
2019-01-31T10:03:50.915Z,3.19
2019-01-31T10:06:45.430Z,3.21
2019-01-31T10:09:37.136Z,3.63
2019-01-31T10:12:40.050Z,3.38
2019-01-31T10:15:28.907Z,3.20
2019-01-31T10:18:32.502Z,3.46
2019-01-31T10:21:25.222Z,3.47
2019-01-31T10:24:54.510Z,3.63
2019-01-31T10:28:10.900Z,3.58
2019-01-31T10:31:01.462Z,3.87
2019-01-31T10:34:02.813Z,3.90
2019-01-31T10:36:58.734Z,3.85
2019-01-31T10:39:54.146Z,3.67
2019-01-31T10:42:52.528Z,3.80
2019-01-31T10:45:49.885Z,3.81
2019-01-31T10:48:45.811Z,4.09
2019-01-31T10:51:48.303Z,4.01
2019-01-31T10:55:00.705Z,4.17
2019-01-31T10:58:04.681Z,4.10
2019-01-31T11:00:57.877Z,3.92
2019-01-31T11:03:49.094Z,4.51
2019-01-31T11:06:43.381Z,4.57
2019-01-31T11:09:29.225Z,4.83
2019-01-31T11:12:47.003Z,5.21
2019-01-31T11:15:33.610Z,4.87
2019-01-31T11:18:55.165Z,4.83
2019-01-31T11:22:22.904Z,4.93
2019-01-31T11:25:23.026Z,4.75
2019-01-31T11:28:23.926Z,4.72
2019-01-31T11:31:24.142Z,4.01
2019-01-31T11:34:32.738Z,4.82
2019-01-31T11:37:46.042Z,4.54
2019-01-31T11:40:56.918Z,4.32
2019-01-31T11:43:41.517Z,4.56
2019-01-31T11:46:48.158Z,4.42
2019-01-31T11:49:56.169Z,4.70
2019-01-31T11:52:39.896Z,4.54
2019-01-31T11:55:21.278Z,5.17
2019-01-31T11:58:36.778Z,4.69
2019-01-31T12:01:06.563Z,5.17
2019-01-31T12:03:33.627Z,4.83
2019-01-31T12:06:01.231Z,4.52
2019-01-31T12:08:28.845Z,4.80
2019-01-31T12:10:56.405Z,4.69
2019-01-31T12:13:24.059Z,4.72
2019-01-31T12:15:51.726Z,4.25
2019-01-31T12:18:18.903Z,3.80
2019-01-31T12:20:48.422Z,4.44
2019-01-31T12:23:17.385Z,4.49
2019-01-31T12:25:45.032Z,4.72
2019-01-31T12:28:15.062Z,4.92
2019-01-31T12:30:42.211Z,4.45
2019-01-31T12:33:09.334Z,4.40
2019-01-31T12:35:37.390Z,4.23
2019-01-31T12:38:04.564Z,4.58
2019-01-31T12:40:31.621Z,4.81
2019-01-31T12:42:58.698Z,4.88
2019-01-31T12:45:26.432Z,4.69
2019-01-31T12:47:54.818Z,4.26
2019-01-31T12:50:25.337Z,4.79
2019-01-31T12:52:53.100Z,4.77
2019-01-31T12:55:20.651Z,4.70
2019-01-31T12:57:48.461Z,4.27
2019-01-31T13:00:35.442Z,4.06
2019-01-31T13:03:02.515Z,4.34
2019-01-31T13:05:30.669Z,4.44
2019-01-31T13:07:59.551Z,4.19
2019-01-31T13:10:26.720Z,4.42
2019-01-31T13:12:54.706Z,4.08
2019-01-31T13:15:21.773Z,4.29
2019-01-31T13:17:53.934Z,4.67
2019-01-31T13:20:22.899Z,4.62
2019-01-31T13:22:55.042Z,4.76
2019-01-31T13:25:23.533Z,4.54
2019-01-31T13:27:50.988Z,4.69
2019-01-31T13:30:19.264Z,4.46
2019-01-31T13:32:46.451Z,4.17
2019-01-31T13:35:13.958Z,4.52
2019-01-31T13:37:41.247Z,3.91
2019-01-31T13:40:11.950Z,4.23
2019-01-31T13:42:40.750Z,4.08
2019-01-31T13:45:10.855Z,3.96
2019-01-31T13:47:39.708Z,3.95
2019-01-31T13:50:08.530Z,4.30
2019-01-31T13:52:35.947Z,4.10
2019-01-31T13:55:06.256Z,4.72
2019-01-31T13:57:33.319Z,4.26
2019-01-31T14:00:00.396Z,4.15
2019-01-31T14:02:27.520Z,3.97
2019-01-31T14:04:55.632Z,4.03
2019-01-31T14:07:24.163Z,3.79
2019-01-31T14:09:53.019Z,4.08
2019-01-31T14:12:20.078Z,4.33
2019-01-31T14:14:47.913Z,4.48
2019-01-31T14:17:15.297Z,4.62
2019-01-31T14:19:43.241Z,4.81
2019-01-31T14:22:12.614Z,4.61
2019-01-31T14:24:43.820Z,5.03
2019-01-31T14:27:12.587Z,4.65
2019-01-31T14:29:39.926Z,4.46
2019-01-31T14:32:09.378Z,4.30
2019-01-31T14:34:36.446Z,4.77
2019-01-31T14:37:03.641Z,4.29
2019-01-31T14:39:32.421Z,4.29
2019-01-31T14:42:00.711Z,4.20
2019-01-31T14:44:28.135Z,4.62
2019-01-31T14:46:56.030Z,4.79
2019-01-31T14:49:23.217Z,4.97
2019-01-31T14:51:50.626Z,4.72
2019-01-31T14:54:18.487Z,4.83
2019-01-31T14:56:45.891Z,4.08
2019-01-31T14:59:13.000Z,4.46
2019-01-31T15:01:40.076Z,3.98
2019-01-31T15:04:07.543Z,3.90
2019-01-31T15:06:34.603Z,3.95
2019-01-31T15:09:05.380Z,3.89
2019-01-31T15:11:33.767Z,4.10
2019-01-31T15:14:00.839Z,3.60
2019-01-31T15:16:28.302Z,3.71
2019-01-31T15:18:55.726Z,3.91
2019-01-31T15:21:23.375Z,3.47
2019-01-31T15:23:51.039Z,3.41
2019-01-31T15:26:18.120Z,3.44
2019-01-31T15:28:45.185Z,3.22
2019-01-31T15:31:12.279Z,3.26
2019-01-31T15:33:39.778Z,3.29
2019-01-31T15:36:06.847Z,3.02
2019-01-31T15:38:33.905Z,2.98
2019-01-31T15:41:01.001Z,2.94
2019-01-31T15:43:28.083Z,3.27
2019-01-31T15:45:55.161Z,2.99
2019-01-31T15:48:22.226Z,2.87
2019-01-31T15:50:49.306Z,2.85
2019-01-31T15:53:17.434Z,2.86
2019-01-31T15:55:44.516Z,2.74
2019-01-31T15:58:11.674Z,2.59
2019-01-31T16:00:47.915Z,2.61
2019-01-31T16:03:20.430Z,2.49
2019-01-31T16:05:47.561Z,2.79
2019-01-31T16:08:15.124Z,2.50
2019-01-31T16:10:43.331Z,2.57
2019-01-31T16:13:16.616Z,2.43
2019-01-31T16:15:44.592Z,2.45
2019-01-31T16:18:12.177Z,2.36
2019-01-31T16:20:40.063Z,2.24
2019-01-31T16:23:08.011Z,2.35
2019-01-31T16:25:35.099Z,2.44
2019-01-31T16:28:04.295Z,2.08
2019-01-31T16:30:31.629Z,2.09
2019-01-31T16:32:59.285Z,2.28
2019-01-31T16:35:26.468Z,2.31
2019-01-31T16:37:54.057Z,2.03
2019-01-31T16:40:22.893Z,2.18
2019-01-31T16:42:51.153Z,2.06
2019-01-31T16:45:19.347Z,2.07
2019-01-31T16:47:47.613Z,1.88
2019-01-31T16:50:15.875Z,1.99
2019-01-31T16:52:43.359Z,2.10
2019-01-31T16:55:13.383Z,1.70
2019-01-31T16:57:40.644Z,1.82
2019-01-31T17:00:13.420Z,1.75
2019-01-31T17:02:41.601Z,1.85
2019-01-31T17:05:13.274Z,1.85
2019-01-31T17:07:40.556Z,1.81
2019-01-31T17:10:08.032Z,1.74
2019-01-31T17:12:35.940Z,1.76
2019-01-31T17:15:03.675Z,1.84
2019-01-31T17:17:31.227Z,1.79
2019-01-31T17:19:58.284Z,1.65
2019-01-31T17:22:26.756Z,1.47
2019-01-31T17:24:53.807Z,1.45
2019-01-31T17:27:21.202Z,1.58
2019-01-31T17:29:50.144Z,1.68
2019-01-31T17:32:17.227Z,1.70
2019-01-31T17:34:44.863Z,1.67
2019-01-31T17:37:12.419Z,1.52
2019-01-31T17:39:41.614Z,1.64
2019-01-31T17:42:09.778Z,1.44
2019-01-31T17:44:36.891Z,1.48
2019-01-31T17:47:04.288Z,1.32
2019-01-31T17:49:31.339Z,1.45
2019-01-31T17:51:58.410Z,1.46
2019-01-31T17:54:25.459Z,1.38
2019-01-31T17:56:52.533Z,1.34
2019-01-31T17:59:19.597Z,1.38
2019-01-31T18:01:46.658Z,1.27
2019-01-31T18:04:13.739Z,1.27
2019-01-31T18:06:41.119Z,1.35
2019-01-31T18:09:10.265Z,1.52
2019-01-31T18:11:37.518Z,1.18
2019-01-31T18:14:05.819Z,1.35
2019-01-31T18:16:32.873Z,1.23
2019-01-31T18:19:01.054Z,1.31
2019-01-31T18:21:29.171Z,1.60
2019-01-31T18:23:56.223Z,1.50
2019-01-31T18:26:23.298Z,1.39
2019-01-31T18:28:50.367Z,1.49
2019-01-31T18:31:17.414Z,1.38
2019-01-31T18:33:44.534Z,1.33
2019-01-31T18:36:12.000Z,1.40
2019-01-31T18:38:39.857Z,1.36
2019-01-31T18:41:07.226Z,1.20
2019-01-31T18:43:34.565Z,1.28
2019-01-31T18:46:01.649Z,1.19
2019-01-31T18:48:29.103Z,1.15
2019-01-31T18:50:56.137Z,1.17
2019-01-31T18:53:23.465Z,1.00
2019-01-31T18:55:51.228Z,1.08
2019-01-31T18:58:18.587Z,1.14
2019-01-31T19:00:47.990Z,1.13
2019-01-31T19:03:15.123Z,1.32
2019-01-31T19:05:42.252Z,1.08
2019-01-31T19:08:09.438Z,1.28
2019-01-31T19:10:43.219Z,1.42
2019-01-31T19:13:05.990Z,1.21
2019-01-31T19:15:33.456Z,1.06
2019-01-31T19:18:06.055Z,1.05
2019-01-31T19:20:30.182Z,1.07
2019-01-31T19:22:59.173Z,1.04
2019-01-31T19:25:26.656Z,1.39
2019-01-31T19:27:53.714Z,1.14
2019-01-31T19:30:32.278Z,1.15
2019-01-31T19:32:59.330Z,1.03
2019-01-31T19:35:28.126Z,1.30
2019-01-31T19:38:02.216Z,1.09
2019-01-31T19:40:30.032Z,1.07
2019-01-31T19:42:57.753Z,1.22
2019-01-31T19:45:28.758Z,1.40
2019-01-31T19:47:56.623Z,1.14
2019-01-31T19:50:25.102Z,1.54
2019-01-31T19:52:54.792Z,1.15
2019-01-31T19:55:23.376Z,1.03
2019-01-31T19:57:50.672Z,1.05
2019-01-31T20:00:19.107Z,1.22
2019-01-31T20:02:46.767Z,1.51
2019-01-31T20:05:14.552Z,1.26
2019-01-31T20:07:43.068Z,1.23
2019-01-31T20:10:11.788Z,1.21
2019-01-31T20:12:39.259Z,1.13
2019-01-31T20:15:07.812Z,1.22
2019-01-31T20:17:36.429Z,1.25
2019-01-31T20:20:05.962Z,1.21
2019-01-31T20:22:33.997Z,1.03
2019-01-31T20:25:01.262Z,1.19
2019-01-31T20:27:29.267Z,1.03
2019-01-31T20:29:56.317Z,1.21
2019-01-31T20:32:23.641Z,0.90
2019-01-31T20:34:50.918Z,1.18
2019-01-31T20:37:18.091Z,1.09
2019-01-31T20:39:45.587Z,1.00
2019-01-31T20:42:13.856Z,0.87
2019-01-31T20:44:41.010Z,1.06
2019-01-31T20:47:08.270Z,1.07
2019-01-31T20:49:35.326Z,1.08
2019-01-31T20:52:03.489Z,1.23
2019-01-31T20:54:31.654Z,1.31
2019-01-31T20:56:59.130Z,1.28
2019-01-31T20:59:27.695Z,1.13
2019-01-31T21:01:54.750Z,1.10
2019-01-31T21:04:22.423Z,0.90
2019-01-31T21:06:50.118Z,1.02
2019-01-31T21:09:17.152Z,1.01
2019-01-31T21:11:44.231Z,1.02
2019-01-31T21:14:11.523Z,0.82
2019-01-31T21:16:51.001Z,1.00
2019-01-31T21:19:08.554Z,0.96
2019-01-31T21:21:35.718Z,1.05
2019-01-31T21:24:03.130Z,0.87
2019-01-31T21:26:30.193Z,0.90
2019-01-31T21:28:57.623Z,1.17
2019-01-31T21:31:24.983Z,0.89
2019-01-31T21:33:52.036Z,1.04
2019-01-31T21:36:19.093Z,0.94
2019-01-31T21:38:46.491Z,1.17
2019-01-31T21:41:13.850Z,1.09
2019-01-31T21:43:41.606Z,0.86
2019-01-31T21:46:08.998Z,1.06
2019-01-31T21:48:36.419Z,0.82
2019-01-31T21:51:03.466Z,0.98
2019-01-31T21:53:30.539Z,0.90
2019-01-31T21:55:57.868Z,0.79
2019-01-31T21:58:25.223Z,0.87
2019-01-31T22:00:52.598Z,0.72
2019-01-31T22:03:19.662Z,0.98
2019-01-31T22:05:46.739Z,1.10
2019-01-31T22:08:14.483Z,0.99
2019-01-31T22:10:41.537Z,0.72
2019-01-31T22:13:08.603Z,0.85
2019-01-31T22:15:35.651Z,0.97
2019-01-31T22:18:03.919Z,1.06
2019-01-31T22:20:30.967Z,1.04
2019-01-31T22:22:58.043Z,1.22
2019-01-31T22:25:25.479Z,1.07
2019-01-31T22:27:52.546Z,1.01
2019-01-31T22:30:24.662Z,1.05
2019-01-31T22:32:51.789Z,0.97
2019-01-31T22:35:18.838Z,1.08
2019-01-31T22:37:47.699Z,0.99
2019-01-31T22:40:15.972Z,1.14
2019-01-31T22:42:43.055Z,1.09
2019-01-31T22:45:12.616Z,1.18
2019-01-31T22:47:40.411Z,1.11
2019-01-31T22:50:09.832Z,1.05
2019-01-31T22:52:36.915Z,0.81
2019-01-31T22:55:05.441Z,1.04
2019-01-31T22:57:33.201Z,0.95
2019-01-31T23:00:00.652Z,0.93
2019-01-31T23:02:28.315Z,0.83
2019-01-31T23:04:56.483Z,0.92
2019-01-31T23:07:23.555Z,1.06
2019-01-31T23:09:50.611Z,0.93
2019-01-31T23:12:17.763Z,1.01
2019-01-31T23:14:44.827Z,0.76
2019-01-31T23:17:11.889Z,0.90
2019-01-31T23:19:38.957Z,0.83
2019-01-31T23:22:06.306Z,0.76
2019-01-31T23:24:33.370Z,0.78
2019-01-31T23:27:00.522Z,0.72
2019-01-31T23:29:27.594Z,0.70
2019-01-31T23:31:54.754Z,0.63
2019-01-31T23:34:21.841Z,0.78
2019-01-31T23:36:49.277Z,0.63
2019-01-31T23:39:19.069Z,0.69
2019-01-31T23:41:46.519Z,0.65
2019-01-31T23:44:14.366Z,0.43
2019-01-31T23:46:41.407Z,0.68
2019-01-31T23:49:08.478Z,0.43
2019-01-31T23:51:35.541Z,0.43
2019-01-31T23:54:02.718Z,0.59
2019-01-31T23:56:29.856Z,0.45
2019-01-31T23:58:56.887Z,0.34
